Time;durP1;ratioP1;P1;durP2;ratioP2;P2;SDS_P1;SDS_P2;PMS_P1;PMS_P2;Temp;Humidity;BMP_temperature;BMP_pressure;BME280_temperature;BME280_humidity;BME280_pressure;Samples;Min_cycle;Max_cycle;Signal;HPM_P1;HPM_P2
2022/05/11 00:02:00;;;;;;;17.52;11.32;;;15.80;71.70;;;;;;2319896;54;21086;-79
2022/05/11 00:04:27;;;;;;;15.23;10.20;;;15.80;71.80;;;;;;2316817;58;22003;-79
2022/05/11 00:06:55;;;;;;;18.98;11.70;;;15.80;71.80;;;;;;2332232;54;21023;-80
2022/05/11 00:09:22;;;;;;;18.83;11.50;;;15.80;72.00;;;;;;2316399;58;21123;-80
2022/05/11 00:11:49;;;;;;;17.87;11.00;;;15.80;72.20;;;;;;2316486;58;21112;-79
2022/05/11 00:14:17;;;;;;;18.10;11.05;;;15.70;72.00;;;;;;2316335;58;21134;-79
2022/05/11 00:16:44;;;;;;;20.42;12.95;;;15.70;72.20;;;;;;2315468;58;21284;-80
2022/05/11 00:21:49;;;;;;;17.37;10.40;;;15.70;72.00;;;;;;2338667;54;22111;-77
2022/05/11 00:24:16;;;;;;;13.88;10.50;;;15.70;72.20;;;;;;2345006;57;21037;-77
2022/05/11 00:26:44;;;;;;;14.00;9.25;;;15.70;72.50;;;;;;2350039;56;21198;-79
2022/05/11 00:29:11;;;;;;;14.57;9.70;;;15.60;72.40;;;;;;2372380;56;21063;-79
2022/05/11 00:31:39;;;;;;;17.40;10.80;;;15.70;72.50;;;;;;2372630;56;21054;-79
2022/05/11 00:34:06;;;;;;;16.05;10.30;;;15.70;72.30;;;;;;2371958;56;21098;-79
2022/05/11 00:36:33;;;;;;;13.77;9.50;;;15.70;72.30;;;;;;2372248;56;21071;-80
2022/05/11 00:39:00;;;;;;;14.20;10.18;;;15.70;72.30;;;;;;2391486;52;21517;-78
2022/05/11 00:44:09;;;;;;;15.75;10.95;;;15.70;72.30;;;;;;2354253;53;22115;-77
2022/05/11 00:46:42;;;;;;;17.23;10.68;;;15.70;72.30;;;;;;2350418;56;21081;-79
2022/05/11 00:49:34;;;;;;;19.47;11.00;;;15.70;72.20;;;;;;2383857;56;21025;-77
2022/05/11 00:52:08;;;;;;;15.75;10.65;;;15.70;72.30;;;;;;2382817;56;21037;-77
2022/05/11 00:54:40;;;;;;;16.10;10.80;;;15.70;72.00;;;;;;2386627;52;21096;-80
2022/05/11 00:57:15;;;;;;;17.90;11.65;;;15.70;71.90;;;;;;2394414;52;21045;-79
2022/05/11 00:59:46;;;;;;;18.73;11.30;;;15.70;71.70;;;;;;2396654;52;21088;-78
2022/05/11 01:02:13;;;;;;;17.20;10.60;;;15.70;71.70;;;;;;2382892;56;21132;-79
2022/05/11 01:04:43;;;;;;;16.15;11.27;;;15.70;71.70;;;;;;2383558;56;21121;-79
2022/05/11 01:07:13;;;;;;;16.42;10.32;;;15.70;71.70;;;;;;2381345;56;21065;-79
2022/05/11 01:09:41;;;;;;;18.98;10.75;;;15.70;71.80;;;;;;2383212;56;21092;-78
2022/05/11 01:12:13;;;;;;;16.20;10.48;;;15.70;71.80;;;;;;2382811;56;21113;-78
2022/05/11 01:14:42;;;;;;;15.98;10.85;;;15.70;72.10;;;;;;2383243;56;21045;-79
2022/05/11 01:17:11;;;;;;;17.52;11.35;;;15.70;72.30;;;;;;2410690;52;21145;-79
2022/05/11 01:19:43;;;;;;;14.73;10.43;;;15.70;72.30;;;;;;2383242;56;21113;-78
2022/05/11 01:22:18;;;;;;;17.20;10.82;;;15.60;72.50;;;;;;2383009;56;21057;-78
2022/05/11 01:24:47;;;;;;;13.95;9.48;;;15.70;72.60;;;;;;2405795;52;21073;-78
2022/05/11 01:27:27;;;;;;;15.60;10.07;;;15.70;72.60;;;;;;2382353;56;21762;-79
2022/05/11 01:29:55;;;;;;;17.87;10.82;;;15.70;72.60;;;;;;2382932;56;21140;-79
2022/05/11 01:32:25;;;;;;;15.55;10.95;;;15.70;72.30;;;;;;2383735;56;21092;-79
2022/05/11 01:34:57;;;;;;;22.05;12.40;;;15.70;72.30;;;;;;2382957;56;21057;-78
2022/05/11 01:37:24;;;;;;;21.55;12.80;;;15.70;73.10;;;;;;2381483;56;21066;-80
2022/05/11 01:42:29;;;;;;;21.70;12.20;;;15.70;72.20;;;;;;2367337;54;22190;-78
2022/05/11 01:44:56;;;;;;;15.45;9.55;;;15.70;72.20;;;;;;2289768;58;21107;-77
2022/05/11 01:47:23;;;;;;;19.08;12.95;;;15.70;72.30;;;;;;2288572;58;21058;-77
2022/05/11 01:49:51;;;;;;;21.02;12.05;;;15.70;72.30;;;;;;2288610;59;21123;-77
2022/05/11 01:52:18;;;;;;;15.38;9.90;;;15.70;72.40;;;;;;2287528;59;21119;-77
2022/05/11 01:54:46;;;;;;;20.88;12.07;;;15.70;72.40;;;;;;2287165;59;21043;-77
2022/05/11 01:57:13;;;;;;;16.42;9.85;;;15.70;72.50;;;;;;2287982;59;21810;-77
2022/05/11 01:59:41;;;;;;;15.00;10.45;;;15.70;72.60;;;;;;2323528;55;21072;-77
2022/05/11 02:02:08;;;;;;;19.50;11.23;;;15.70;72.70;;;;;;2288598;59;21707;-77
2022/05/11 02:10:07;;;;;;;16.42;10.35;;;15.70;72.90;;;;;;2286477;55;21015;-78
2022/05/11 02:12:36;;;;;;;16.95;10.95;;;15.70;72.90;;;;;;2287882;59;21613;-77
2022/05/11 02:15:05;;;;;;;18.90;9.75;;;15.70;73.00;;;;;;2288071;59;21114;-77
2022/05/11 02:17:33;;;;;;;20.73;11.32;;;15.60;73.20;;;;;;2287322;59;21039;-77
2022/05/11 02:20:00;;;;;;;19.25;10.93;;;15.70;73.20;;;;;;2288422;59;21076;-77
2022/05/11 02:22:27;;;;;;;14.98;11.50;;;15.70;73.00;;;;;;2288204;59;21044;-76
2022/05/11 02:24:55;;;;;;;19.95;12.02;;;15.70;73.00;;;;;;2297475;55;21062;-78
2022/05/11 02:27:22;;;;;;;17.87;10.75;;;15.70;72.70;;;;;;2303305;55;21131;-79
2022/05/11 02:29:49;;;;;;;17.23;11.38;;;15.70;73.60;;;;;;2293484;55;21059;-77
2022/05/11 02:32:16;;;;;;;19.08;11.88;;;15.60;72.90;;;;;;2288311;59;21554;-78
2022/05/11 02:37:29;;;;;;;22.85;11.70;;;15.60;73.00;;;;;;2287825;55;21047;-78
2022/05/11 02:39:57;;;;;;;18.33;10.93;;;15.60;72.70;;;;;;2295659;55;21385;-79
2022/05/11 02:42:24;;;;;;;16.02;11.05;;;15.60;72.70;;;;;;2286528;59;21075;-77
2022/05/11 02:44:52;;;;;;;16.50;10.43;;;15.50;72.70;;;;;;2289334;55;21067;-78
2022/05/11 02:47:19;;;;;;;17.08;11.93;;;15.50;72.90;;;;;;2286652;59;21059;-79
2022/05/11 02:49:47;;;;;;;20.75;12.27;;;15.50;72.90;;;;;;2305199;55;21051;-78
2022/05/11 02:52:17;;;;;;;19.98;12.13;;;15.40;72.80;;;;;;2286639;59;21055;-78
2022/05/11 02:54:48;;;;;;;16.05;10.30;;;15.50;73.00;;;;;;2340481;55;21590;-78
2022/05/11 02:57:16;;;;;;;19.70;12.05;;;15.50;72.90;;;;;;2286095;59;21123;-78
2022/05/11 02:59:44;;;;;;;16.55;10.43;;;15.40;72.90;;;;;;2287840;59;21043;-79
2022/05/11 03:02:12;;;;;;;18.85;12.05;;;15.50;73.90;;;;;;2286739;59;21083;-78
2022/05/11 03:04:39;;;;;;;15.20;10.02;;;15.50;73.20;;;;;;2286850;59;21065;-77
2022/05/11 03:07:06;;;;;;;14.85;8.75;;;15.50;73.30;;;;;;2474126;55;21174;-78
2022/05/11 03:09:33;;;;;;;14.52;9.60;;;15.50;73.50;;;;;;2287802;59;21142;-79
2022/05/11 03:12:01;;;;;;;14.82;9.98;;;15.50;73.70;;;;;;2287918;59;21065;-79
2022/05/11 03:14:28;;;;;;;14.85;10.05;;;15.50;73.60;;;;;;2288109;59;21032;-77
2022/05/11 03:16:55;;;;;;;17.25;10.38;;;15.50;73.60;;;;;;2286398;59;21130;-78
2022/05/11 03:19:22;;;;;;;16.30;10.77;;;15.50;73.60;;;;;;2346268;55;21587;-77
2022/05/11 03:21:50;;;;;;;15.50;9.32;;;15.50;73.60;;;;;;2287244;59;21067;-77
2022/05/11 03:24:18;;;;;;;16.50;11.18;;;15.50;73.80;;;;;;2285511;59;22518;-77
2022/05/11 03:26:45;;;;;;;14.40;10.38;;;15.60;73.90;;;;;;2353525;55;21060;-80
2022/05/11 03:29:13;;;;;;;15.48;10.10;;;15.50;73.90;;;;;;2287456;59;21047;-78
2022/05/11 03:31:41;;;;;;;15.10;10.68;;;15.50;74.10;;;;;;2287763;59;21135;-78
2022/05/11 03:36:54;;;;;;;18.83;11.45;;;15.60;73.90;;;;;;2286999;55;21095;-78
2022/05/11 03:39:21;;;;;;;12.98;9.38;;;15.60;73.80;;;;;;2285558;59;21479;-77
2022/05/11 03:41:49;;;;;;;17.10;11.18;;;15.60;73.90;;;;;;2286851;59;21071;-78
2022/05/11 03:44:16;;;;;;;17.90;10.50;;;15.60;74.00;;;;;;2286968;59;21063;-78
2022/05/11 03:46:43;;;;;;;15.68;10.05;;;15.60;73.90;;;;;;2286943;59;21574;-78
2022/05/11 03:51:47;;;;;;;15.95;10.77;;;15.60;74.00;;;;;;2353262;57;22974;-78
2022/05/11 03:54:14;;;;;;;17.40;11.88;;;15.60;73.90;;;;;;2345235;57;21120;-79
2022/05/11 03:56:42;;;;;;;17.05;9.80;;;15.60;73.90;;;;;;2396743;53;21050;-78
2022/05/11 03:59:09;;;;;;;16.08;11.10;;;15.70;74.30;;;;;;2362814;53;21623;-79
2022/05/11 04:01:36;;;;;;;12.63;9.82;;;15.70;74.20;;;;;;2345155;53;21077;-79
2022/05/11 04:04:04;;;;;;;12.93;9.57;;;15.60;74.20;;;;;;2346475;53;21219;-79
2022/05/11 04:06:31;;;;;;;24.00;12.50;;;15.70;74.30;;;;;;2342734;57;21061;-78
2022/05/11 04:08:59;;;;;;;15.40;10.05;;;15.70;74.20;;;;;;2345003;57;21672;-78
2022/05/11 04:11:28;;;;;;;16.02;11.05;;;15.70;74.20;;;;;;2342114;57;21176;-78
2022/05/11 04:13:57;;;;;;;13.52;10.15;;;15.70;74.20;;;;;;2343925;57;21022;-79
2022/05/11 04:16:24;;;;;;;13.98;9.73;;;15.70;74.00;;;;;;2371741;53;21113;-80
2022/05/11 04:18:51;;;;;;;20.50;11.77;;;15.70;73.90;;;;;;2353237;53;21054;-79
2022/05/11 04:21:19;;;;;;;16.87;11.73;;;15.70;74.00;;;;;;2344597;57;21108;-80
2022/05/11 04:23:46;;;;;;;17.20;11.75;;;15.80;74.10;;;;;;2345533;57;21041;-79
2022/05/11 04:26:14;;;;;;;18.12;11.82;;;15.80;73.90;;;;;;2343567;57;21046;-80
2022/05/11 04:28:43;;;;;;;17.10;11.88;;;15.80;73.80;;;;;;2343424;57;21050;-79
2022/05/11 04:31:13;;;;;;;17.50;11.45;;;15.80;73.80;;;;;;2343968;57;21090;-77
2022/05/11 04:33:40;;;;;;;15.52;10.60;;;15.80;73.90;;;;;;2344343;57;21119;-79
2022/05/11 04:36:08;;;;;;;13.70;10.02;;;15.80;74.00;;;;;;2344498;57;21121;-79
2022/05/11 04:41:13;;;;;;;18.27;12.00;;;15.90;74.20;;;;;;2404581;53;22608;-79
2022/05/11 04:43:40;;;;;;;16.92;11.50;;;15.90;74.20;;;;;;2433355;53;21094;-77
2022/05/11 04:46:07;;;;;;;16.40;10.02;;;15.90;74.30;;;;;;2345749;57;21647;-78
2022/05/11 04:48:34;;;;;;;20.17;12.50;;;15.90;74.30;;;;;;2413995;54;73016;-80
2022/05/11 04:51:04;;;;;;;20.40;11.82;;;15.90;74.20;;;;;;2531180;54;21048;-79
2022/05/11 04:53:32;;;;;;;16.98;10.95;;;16.00;74.20;;;;;;2531456;54;21036;-79
2022/05/11 04:55:59;;;;;;;16.02;10.90;;;16.00;74.20;;;;;;2294714;58;21047;-79
2022/05/11 05:00:54;;;;;;;16.05;11.50;;;16.00;74.20;;;;;;2582231;52;68578;-73
2022/05/11 05:03:21;;;;;;;16.42;10.05;;;16.00;74.20;;;;;;2373943;56;21056;-73
2022/05/11 05:05:50;;;;;;;16.23;11.10;;;16.10;74.20;;;;;;2627459;52;21128;-74
2022/05/11 05:08:17;;;;;;;16.67;10.93;;;16.10;74.10;;;;;;2371534;56;21662;-75
2022/05/11 05:10:44;;;;;;;17.12;11.35;;;16.10;74.10;;;;;;2624744;52;21068;-75
2022/05/11 05:13:12;;;;;;;15.75;11.00;;;16.10;74.80;;;;;;2370846;56;21095;-75
2022/05/11 05:15:42;;;;;;;14.50;10.35;;;16.20;74.30;;;;;;2371594;56;21032;-75
2022/05/11 05:18:10;;;;;;;14.68;9.75;;;16.20;74.40;;;;;;2370303;56;21060;-75
2022/05/11 05:20:38;;;;;;;13.68;9.98;;;16.20;74.40;;;;;;2370945;56;21203;-74
2022/05/11 05:23:05;;;;;;;16.95;11.10;;;16.20;74.50;;;;;;2370814;56;21108;-75
2022/05/11 05:25:33;;;;;;;14.30;10.48;;;16.30;74.40;;;;;;2623938;52;21060;-73
2022/05/11 05:31:05;;;;;;;20.65;11.77;;;16.30;74.20;;;;;;2568377;52;21693;-76
2022/05/11 05:33:34;;;;;;;18.65;11.75;;;16.30;74.00;;;;;;2371806;56;21025;-72
2022/05/11 05:36:03;;;;;;;15.98;11.10;;;16.40;74.00;;;;;;2372640;56;21063;-72
2022/05/11 05:38:30;;;;;;;18.23;11.50;;;16.40;74.90;;;;;;2372334;56;21072;-74
2022/05/11 05:40:57;;;;;;;16.35;11.48;;;16.40;74.20;;;;;;2372380;56;21120;-74
2022/05/11 05:43:25;;;;;;;15.38;10.75;;;16.40;74.20;;;;;;2372536;56;21124;-75
2022/05/11 05:45:54;;;;;;;18.55;12.57;;;16.40;74.10;;;;;;2372265;56;21599;-74
2022/05/11 05:48:23;;;;;;;21.23;12.68;;;16.50;74.20;;;;;;2371654;56;21053;-75
2022/05/11 05:50:50;;;;;;;18.98;11.38;;;16.50;74.40;;;;;;2371441;56;21045;-75
2022/05/11 05:53:19;;;;;;;17.12;11.98;;;16.60;74.40;;;;;;2371237;56;21036;-75
2022/05/11 05:55:47;;;;;;;15.68;10.65;;;16.60;74.30;;;;;;2624045;52;21123;-73
2022/05/11 05:58:15;;;;;;;19.98;12.68;;;16.60;74.30;;;;;;2371803;56;21131;-73
2022/05/11 06:00:42;;;;;;;19.80;12.85;;;16.60;74.40;;;;;;2369000;56;21112;-75
2022/05/11 06:03:11;;;;;;;17.83;11.80;;;16.60;74.40;;;;;;2371136;56;21186;-73
2022/05/11 06:05:39;;;;;;;17.77;12.23;;;16.70;73.80;;;;;;2623782;52;21151;-75
2022/05/11 06:08:08;;;;;;;16.98;12.10;;;16.70;73.90;;;;;;2371080;56;21132;-75
2022/05/11 06:10:39;;;;;;;17.50;12.23;;;16.80;74.10;;;;;;2371294;56;21115;-73
2022/05/11 06:13:07;;;;;;;18.35;12.25;;;16.80;74.00;;;;;;2371671;56;21088;-75
2022/05/11 06:15:35;;;;;;;18.58;11.82;;;16.80;73.90;;;;;;2371288;56;21064;-75
2022/05/11 06:18:03;;;;;;;16.48;11.43;;;16.80;74.10;;;;;;2367114;56;21072;-74
2022/05/11 06:20:30;;;;;;;17.87;11.43;;;16.90;74.10;;;;;;2367708;56;21717;-72
2022/05/11 06:22:57;;;;;;;14.30;10.60;;;16.90;73.90;;;;;;2370016;56;21084;-73
2022/05/11 06:25:25;;;;;;;15.27;11.20;;;16.90;74.00;;;;;;2367484;56;21115;-72
2022/05/11 06:27:52;;;;;;;13.18;10.88;;;17.00;74.20;;;;;;2368316;56;21033;-75
2022/05/11 06:30:19;;;;;;;14.73;10.82;;;17.00;74.00;;;;;;2367850;56;21052;-74
2022/05/11 06:32:47;;;;;;;19.02;10.77;;;17.00;74.00;;;;;;2368127;56;21140;-75
2022/05/11 06:35:15;;;;;;;20.95;12.02;;;17.00;73.80;;;;;;2367833;56;21527;-74
2022/05/11 06:37:42;;;;;;;15.25;10.27;;;17.00;73.60;;;;;;2368344;56;21049;-74
2022/05/11 06:40:13;;;;;;;20.90;11.40;;;17.10;73.80;;;;;;2367480;56;21624;-72
2022/05/11 06:42:41;;;;;;;17.50;10.98;;;17.10;73.80;;;;;;2367714;56;21642;-75
2022/05/11 06:45:11;;;;;;;16.25;10.88;;;17.10;73.40;;;;;;2368200;56;21072;-74
2022/05/11 06:50:14;;;;;;;14.80;10.98;;;17.20;73.50;;;;;;2324752;57;22163;-72
2022/05/11 06:52:42;;;;;;;19.65;12.37;;;17.20;73.50;;;;;;2318028;58;21562;-75
2022/05/11 07:00:42;;;;;;;21.10;13.15;;;17.30;73.60;;;;;;2355041;57;20999;-74
2022/05/11 07:03:09;;;;;;;23.52;12.80;;;17.30;73.50;;;;;;2606601;53;21612;-74
2022/05/11 07:05:36;;;;;;;20.25;11.93;;;17.30;73.70;;;;;;2355348;57;21590;-73
2022/05/11 07:08:05;;;;;;;19.60;12.07;;;17.30;73.40;;;;;;2355867;57;21554;-74
2022/05/11 07:10:35;;;;;;;17.80;12.75;;;17.30;74.10;;;;;;2355159;57;21128;-74
2022/05/11 07:13:04;;;;;;;16.90;12.00;;;17.40;73.60;;;;;;2353566;57;21063;-75
2022/05/11 07:15:31;;;;;;;21.12;13.30;;;17.40;73.40;;;;;;2353417;57;21048;-73
2022/05/11 07:20:37;;;;;;;16.65;12.07;;;17.40;73.40;;;;;;2351392;57;23358;-74
2022/05/11 07:23:06;;;;;;;20.02;12.45;;;17.40;72.90;;;;;;2344610;57;21042;-75
2022/05/11 07:25:35;;;;;;;16.27;12.00;;;17.40;72.50;;;;;;2344484;57;21621;-75
2022/05/11 07:28:03;;;;;;;19.35;12.70;;;17.40;72.70;;;;;;2364228;56;21024;-75
2022/05/11 07:30:33;;;;;;;19.75;12.20;;;17.40;72.50;;;;;;2371566;56;21114;-75
2022/05/11 07:33:02;;;;;;;18.98;12.32;;;17.40;72.40;;;;;;2372436;56;21115;-75
2022/05/11 07:35:30;;;;;;;19.87;11.45;;;17.40;72.40;;;;;;2373738;56;21040;-74
2022/05/11 07:37:59;;;;;;;16.67;11.05;;;17.40;72.10;;;;;;2373037;56;21546;-76
2022/05/11 07:40:27;;;;;;;18.17;12.07;;;17.40;72.40;;;;;;2622742;52;21043;-72
2022/05/11 07:42:55;;;;;;;16.40;10.75;;;17.40;71.50;;;;;;2368078;56;21032;-74
2022/05/11 07:45:23;;;;;;;16.70;10.73;;;17.40;71.50;;;;;;2367089;56;21028;-74
2022/05/11 07:47:50;;;;;;;16.27;11.18;;;17.40;71.70;;;;;;2370287;56;21047;-76
2022/05/11 07:50:18;;;;;;;14.35;10.57;;;17.30;71.40;;;;;;2371418;56;21146;-73
2022/05/11 07:52:46;;;;;;;18.37;11.63;;;17.40;73.00;;;;;;2372882;56;21039;-73
2022/05/11 07:55:15;;;;;;;15.25;11.18;;;17.40;72.30;;;;;;2373362;56;21681;-72
2022/05/11 08:00:28;;;;;;;19.58;11.18;;;17.40;72.10;;;;;;2373645;56;21525;-75
2022/05/11 08:02:56;;;;;;;15.70;11.38;;;17.40;71.60;;;;;;2372321;56;21509;-73
2022/05/11 08:05:24;;;;;;;15.40;11.15;;;17.40;71.90;;;;;;2372527;56;21115;-75
2022/05/11 08:07:53;;;;;;;13.90;10.68;;;17.40;72.60;;;;;;2372939;56;21056;-76
2022/05/11 08:10:24;;;;;;;16.70;11.10;;;17.40;71.50;;;;;;2374914;56;21113;-74
2022/05/11 08:12:52;;;;;;;19.65;11.75;;;17.40;71.70;;;;;;2375194;56;21059;-74
2022/05/11 08:15:22;;;;;;;14.98;10.55;;;17.50;71.20;;;;;;2374588;56;21120;-75
2022/05/11 08:17:50;;;;;;;15.75;10.50;;;17.50;72.00;;;;;;2375637;56;21142;-77
2022/05/11 08:20:19;;;;;;;14.13;9.70;;;17.50;71.10;;;;;;2374146;56;21048;-73
2022/05/11 08:22:48;;;;;;;13.85;9.73;;;17.50;71.30;;;;;;2628286;52;21036;-75
2022/05/11 08:25:19;;;;;;;14.45;10.82;;;17.50;71.40;;;;;;2374557;56;21131;-75
2022/05/11 08:27:47;;;;;;;15.07;10.68;;;17.50;71.10;;;;;;2375237;56;21044;-76
2022/05/11 08:35:49;;;;;;;15.95;10.48;;;17.60;71.20;;;;;;2372654;56;20999;-76
2022/05/11 08:38:17;;;;;;;12.95;9.23;;;17.60;71.20;;;;;;2625585;52;21060;-73
2022/05/11 08:43:20;;;;;;;15.30;10.27;;;17.60;71.00;;;;;;2356394;57;20112;-74
2022/05/11 08:45:55;;;;;;;13.90;9.93;;;17.70;71.40;;;;;;2346831;57;21532;-74
2022/05/11 08:48:35;;;;;;;14.87;11.00;;;17.70;71.10;;;;;;2372179;56;21111;-75
2022/05/11 08:51:05;;;;;;;14.57;9.80;;;17.80;71.20;;;;;;2375205;56;21099;-75
2022/05/11 08:53:38;;;;;;;15.60;10.23;;;17.80;71.20;;;;;;2374272;56;21080;-75
2022/05/11 08:56:12;;;;;;;13.80;10.20;;;17.80;71.30;;;;;;2626731;52;21028;-75
2022/05/11 08:58:48;;;;;;;15.55;9.63;;;17.80;70.50;;;;;;2628030;52;21079;-77
2022/05/11 09:01:19;;;;;;;14.70;10.63;;;17.90;70.00;;;;;;2374180;56;21056;-73
2022/05/11 09:03:48;;;;;;;12.88;9.45;;;17.90;70.20;;;;;;2620355;52;21036;-74
2022/05/11 09:08:52;;;;;;;19.37;10.93;;;17.90;70.40;;;;;;2348338;57;22125;-74
2022/05/11 09:11:26;;;;;;;13.88;9.52;;;18.00;70.70;;;;;;2341406;57;21845;-74
2022/05/11 09:13:55;;;;;;;15.50;10.18;;;18.00;70.80;;;;;;2341481;57;21564;-75
2022/05/11 09:16:24;;;;;;;15.55;10.38;;;18.00;70.70;;;;;;2340882;57;21054;-75
2022/05/11 09:18:52;;;;;;;14.48;10.43;;;18.10;70.80;;;;;;2586560;53;21046;-74
2022/05/11 09:21:31;;;;;;;13.40;9.85;;;18.10;70.50;;;;;;2339586;57;21263;-72
2022/05/11 09:24:08;;;;;;;13.60;9.38;;;18.10;70.40;;;;;;2340610;57;21090;-74
2022/05/11 09:26:37;;;;;;;12.50;9.30;;;18.20;70.70;;;;;;2343895;57;21097;-75
2022/05/11 09:29:19;;;;;;;17.05;9.85;;;18.30;70.30;;;;;;2344031;57;21565;-75
2022/05/11 09:31:48;;;;;;;12.95;8.70;;;18.40;69.70;;;;;;2344140;57;21278;-75
2022/05/11 09:34:25;;;;;;;12.85;9.02;;;18.40;70.00;;;;;;2345537;57;21057;-75
2022/05/11 09:37:02;;;;;;;15.40;8.93;;;18.50;69.50;;;;;;2345342;57;21093;-78
2022/05/11 09:39:33;;;;;;;14.30;9.63;;;18.60;68.90;;;;;;2593106;53;21097;-78
2022/05/11 09:42:25;;;;;;;12.15;8.93;;;18.60;68.90;;;;;;2344909;57;21133;-77
2022/05/11 09:44:53;;;;;;;12.77;8.10;;;18.60;68.80;;;;;;2345014;57;21058;-77
2022/05/11 09:47:28;;;;;;;13.13;8.90;;;18.70;68.40;;;;;;2342654;57;21153;-73
2022/05/11 09:49:56;;;;;;;14.10;9.32;;;18.80;68.20;;;;;;2343970;57;21568;-75
2022/05/11 09:52:34;;;;;;;18.92;9.20;;;18.90;68.40;;;;;;2344568;57;21113;-75
2022/05/11 09:55:13;;;;;;;12.07;8.10;;;18.90;68.50;;;;;;2344394;57;21053;-74
2022/05/11 09:57:40;;;;;;;11.23;7.25;;;19.00;67.70;;;;;;2342643;57;21149;-76
2022/05/11 10:00:20;;;;;;;9.68;7.15;;;19.10;67.80;;;;;;2342929;57;21149;-76
2022/05/11 10:02:50;;;;;;;12.05;8.32;;;19.10;66.80;;;;;;2343791;57;21046;-74
2022/05/11 10:05:24;;;;;;;14.10;8.18;;;19.20;66.60;;;;;;2593117;53;21049;-74
2022/05/11 10:07:56;;;;;;;12.37;7.87;;;19.20;66.40;;;;;;2345718;57;21098;-76
2022/05/11 10:13:11;;;;;;;12.30;7.62;;;19.20;66.60;;;;;;2355831;57;22050;-75
2022/05/11 10:24:29;;;;;;;13.13;6.72;;;19.60;64.90;;;;;;2374576;56;21019;-74
2022/05/11 10:27:03;;;;;;;11.05;7.10;;;19.60;64.70;;;;;;2374740;56;21165;-76
2022/05/11 10:29:45;;;;;;;7.93;6.25;;;19.70;63.60;;;;;;2375411;56;21142;-75
2022/05/11 10:32:19;;;;;;;12.73;7.15;;;19.80;62.20;;;;;;2374780;56;21051;-75
2022/05/11 10:35:01;;;;;;;8.20;5.25;;;19.80;61.10;;;;;;2374362;56;21035;-74
2022/05/11 10:37:35;;;;;;;8.85;5.80;;;19.90;61.30;;;;;;2373930;56;21134;-75
2022/05/11 10:42:48;;;;;;;7.80;5.25;;;20.00;61.30;;;;;;2327089;57;22163;-76
2022/05/11 10:45:20;;;;;;;11.45;6.20;;;20.20;59.90;;;;;;2594066;53;21113;-75
2022/05/11 10:48:09;;;;;;;10.50;4.65;;;20.20;59.10;;;;;;2593838;53;21091;-76
2022/05/11 10:50:46;;;;;;;5.80;4.53;;;20.30;57.70;;;;;;2346446;57;21131;-74
2022/05/11 10:53:25;;;;;;;8.05;4.43;;;20.40;57.30;;;;;;2346699;57;22187;-76
2022/05/11 10:56:05;;;;;;;6.20;4.07;;;20.40;57.10;;;;;;2346470;57;21047;-76
2022/05/11 10:59:19;;;;;;;8.32;4.55;;;20.50;56.70;;;;;;2346723;57;21098;-76
2022/05/11 11:01:59;;;;;;;5.87;4.35;;;20.50;56.60;;;;;;2346163;57;21632;-76
2022/05/11 11:04:52;;;;;;;8.45;5.53;;;20.40;55.80;;;;;;2594295;52;21118;-75
2022/05/11 11:07:29;;;;;;;8.60;5.22;;;20.40;56.20;;;;;;2345781;57;21119;-75
2022/05/11 11:10:36;;;;;;;7.28;5.03;;;20.40;56.70;;;;;;2347333;57;21059;-75
2022/05/11 11:13:38;;;;;;;16.90;6.45;;;20.40;57.20;;;;;;2326110;57;21099;-76
2022/05/11 11:16:08;;;;;;;8.73;4.57;;;20.50;56.80;;;;;;2346126;57;21102;-76
2022/05/11 11:18:40;;;;;;;8.23;4.50;;;20.70;57.00;;;;;;2594487;52;21047;-76
2022/05/11 11:21:09;;;;;;;7.12;4.15;;;20.80;57.20;;;;;;2347234;57;21058;-75
2022/05/11 11:23:39;;;;;;;12.00;5.93;;;20.90;56.30;;;;;;2346576;57;21681;-75
2022/05/11 11:26:09;;;;;;;7.40;5.53;;;20.90;55.80;;;;;;2346541;57;21102;-76
2022/05/11 11:29:15;;;;;;;10.85;4.95;;;21.00;55.90;;;;;;2346875;57;21542;-76
2022/05/11 11:35:30;;;;;;;7.15;5.62;;;21.10;55.10;;;;;;2355564;57;22070;-76
2022/05/11 11:38:02;;;;;;;10.43;5.37;;;21.20;55.40;;;;;;2618799;52;21075;-76
2022/05/11 11:40:34;;;;;;;12.93;4.97;;;21.20;54.80;;;;;;2374407;56;21098;-76
2022/05/11 11:43:39;;;;;;;10.77;5.30;;;21.30;55.50;;;;;;2375309;56;21592;-74
2022/05/11 11:48:45;;;;;;;7.60;5.28;;;21.40;55.20;;;;;;2300981;58;22125;-74
2022/05/11 11:51:31;;;;;;;8.10;5.72;;;21.40;54.50;;;;;;2560358;54;21060;-75
2022/05/11 11:53:59;;;;;;;6.03;4.80;;;21.50;54.80;;;;;;2560113;54;21136;-75
2022/05/11 11:56:38;;;;;;;10.32;5.45;;;21.50;54.60;;;;;;2318586;58;21607;-76
2022/05/11 11:59:09;;;;;;;10.10;5.07;;;21.60;54.70;;;;;;2318178;58;21062;-75
2022/05/11 12:01:39;;;;;;;7.53;4.47;;;21.70;54.20;;;;;;2318596;57;21560;-76
2022/05/11 12:15:18;;;;;;;6.30;5.10;;;22.40;52.40;;;;;;2346118;57;21117;-76
2022/05/11 12:17:45;;;;;;;10.32;5.50;;;22.50;51.70;;;;;;2346816;57;21096;-76
2022/05/11 12:20:17;;;;;;;10.55;4.72;;;22.50;51.60;;;;;;2594356;53;21054;-76
2022/05/11 12:22:47;;;;;;;11.27;4.95;;;22.60;52.30;;;;;;2347178;57;21049;-77
2022/05/11 12:28:21;;;;;;;9.43;4.45;;;22.80;52.00;;;;;;2342411;57;22692;-75
2022/05/11 12:33:28;;;;;;;6.35;4.18;;;23.10;51.90;;;;;;2324181;57;22076;-76
2022/05/11 12:35:56;;;;;;;12.57;5.40;;;23.30;51.00;;;;;;2341818;57;21089;-76
2022/05/11 12:38:29;;;;;;;8.98;4.95;;;23.40;50.30;;;;;;2619850;52;21066;-76
2022/05/11 12:40:58;;;;;;;8.48;4.10;;;23.40;50.80;;;;;;2370278;56;21129;-75
2022/05/11 12:46:10;;;;;;;10.13;4.20;;;23.50;49.50;;;;;;2323820;57;22107;-75
2022/05/11 12:48:41;;;;;;;7.47;4.32;;;23.60;48.70;;;;;;2621804;52;21034;-76
2022/05/11 12:53:52;;;;;;;5.05;4.07;;;23.70;48.30;;;;;;2352129;57;22140;-76
2022/05/11 12:56:22;;;;;;;8.87;3.90;;;23.90;48.40;;;;;;2624753;52;21131;-77
2022/05/11 12:58:51;;;;;;;7.75;5.20;;;24.00;48.70;;;;;;2371180;56;21106;-76
2022/05/11 13:01:21;;;;;;;7.95;4.15;;;24.00;47.20;;;;;;2624822;51;21055;-75
2022/05/11 13:03:50;;;;;;;5.32;3.20;;;24.10;46.90;;;;;;2371428;56;21050;-74
2022/05/11 13:06:26;;;;;;;6.30;3.80;;;24.20;46.60;;;;;;2372770;56;21134;-75
2022/05/11 13:08:56;;;;;;;8.40;3.40;;;24.20;46.50;;;;;;2374809;56;21118;-73
2022/05/11 13:11:26;;;;;;;10.43;3.78;;;24.20;45.50;;;;;;2375631;56;21042;-74
2022/05/11 13:13:57;;;;;;;5.32;3.25;;;24.20;45.40;;;;;;2375356;56;21035;-74
2022/05/11 13:16:28;;;;;;;4.62;2.70;;;24.10;45.70;;;;;;2374831;56;21086;-75
2022/05/11 13:19:06;;;;;;;8.20;3.00;;;24.20;45.60;;;;;;2375283;56;21071;-74
2022/05/11 13:21:36;;;;;;;6.60;3.58;;;24.20;45.20;;;;;;2375470;56;21035;-74
2022/05/11 13:24:07;;;;;;;6.37;2.42;;;24.20;45.10;;;;;;2629006;51;21038;-75
2022/05/11 13:26:40;;;;;;;9.40;3.50;;;24.30;45.00;;;;;;2374123;56;21027;-76
2022/05/11 13:29:20;;;;;;;6.95;3.00;;;24.30;44.40;;;;;;2375622;56;21015;-75
2022/05/11 13:32:03;;;;;;;7.72;3.35;;;24.20;44.20;;;;;;2375079;56;21094;-75
2022/05/11 13:34:32;;;;;;;10.10;3.60;;;24.20;44.40;;;;;;2628921;51;21010;-75
2022/05/11 13:37:01;;;;;;;6.60;3.15;;;24.30;44.50;;;;;;2628376;52;21062;-75
2022/05/11 13:39:34;;;;;;;3.85;2.60;;;24.40;44.10;;;;;;2374837;56;21090;-75
2022/05/11 13:42:04;;;;;;;5.10;2.90;;;24.40;43.60;;;;;;2374257;56;21102;-75
2022/05/11 13:44:39;;;;;;;3.00;2.40;;;24.40;43.50;;;;;;2628639;52;21584;-77
2022/05/11 13:53:21;;;;;;;10.90;2.50;;;24.30;43.70;;;;;;2356018;57;22570;-74
2022/05/11 13:56:03;;;;;;;4.93;2.53;;;24.50;43.90;;;;;;2347374;57;21059;-78
2022/05/11 13:58:34;;;;;;;6.82;2.67;;;24.60;44.60;;;;;;2358570;56;21110;-78
2022/05/11 14:01:05;;;;;;;4.90;2.45;;;24.60;42.80;;;;;;2374857;56;21158;-78
2022/05/11 14:03:37;;;;;;;5.22;2.40;;;24.60;43.30;;;;;;2628606;52;21164;-79
2022/05/11 14:06:08;;;;;;;5.47;3.08;;;24.50;43.40;;;;;;2373963;56;21074;-77
2022/05/11 14:08:35;;;;;;;5.32;2.92;;;24.50;43.70;;;;;;2628675;52;21078;-78
2022/05/11 14:11:03;;;;;;;6.70;2.55;;;24.50;42.80;;;;;;2375095;56;21055;-78
2022/05/11 14:13:30;;;;;;;4.32;2.03;;;24.40;43.10;;;;;;2629331;52;21031;-78
2022/05/11 14:15:57;;;;;;;6.12;2.58;;;24.40;42.20;;;;;;2373438;56;21051;-78
2022/05/11 14:18:25;;;;;;;3.70;2.53;;;24.30;43.10;;;;;;2374307;56;21623;-78
2022/05/11 14:23:29;;;;;;;6.70;2.45;;;24.40;42.30;;;;;;2354975;57;22066;-75
2022/05/11 14:25:56;;;;;;;6.57;2.95;;;24.40;42.30;;;;;;2344634;57;21125;-75
2022/05/11 14:28:23;;;;;;;6.05;2.33;;;24.50;43.50;;;;;;2623665;52;21565;-74
2022/05/11 14:30:51;;;;;;;5.57;2.40;;;24.50;43.50;;;;;;2372333;56;21051;-75
2022/05/11 14:33:19;;;;;;;2.65;1.98;;;24.50;42.90;;;;;;2373054;56;21109;-75
2022/05/11 14:35:47;;;;;;;5.10;2.30;;;24.70;43.30;;;;;;2373920;56;21055;-75